createdAt,value
2022-12-29T00:02:26.727Z,3.70
2022-12-29T00:04:53.410Z,3.50
2022-12-29T00:07:20.073Z,3.20
2022-12-29T00:09:46.737Z,3.10
2022-12-29T00:12:13.429Z,3.00
2022-12-29T00:14:58.635Z,3.00
2022-12-29T00:17:25.360Z,3.00
2022-12-29T00:20:11.173Z,3.20
2022-12-29T00:22:56.541Z,3.30
2022-12-29T00:25:42.116Z,3.40
2022-12-29T00:28:30.153Z,3.40
2022-12-29T00:31:19.758Z,3.40
2022-12-29T00:34:04.956Z,3.30
2022-12-29T00:36:36.666Z,3.20
2022-12-29T00:39:29.635Z,3.20
2022-12-29T00:42:15.114Z,3.20
2022-12-29T00:44:42.229Z,3.10
2022-12-29T00:47:10.087Z,3.10
2022-12-29T00:49:36.751Z,3.10
2022-12-29T00:52:09.947Z,3.10
2022-12-29T00:54:38.634Z,3.20
2022-12-29T00:57:07.354Z,3.20
2022-12-29T00:59:36.415Z,3.20
2022-12-29T01:02:03.477Z,3.20
2022-12-29T01:04:30.314Z,3.20
2022-12-29T01:06:56.968Z,3.20
2022-12-29T01:10:02.190Z,3.10
2022-12-29T01:12:45.782Z,3.00
2022-12-29T01:15:15.002Z,2.90
2022-12-29T01:17:42.185Z,2.90
2022-12-29T01:20:09.386Z,2.90
2022-12-29T01:22:36.148Z,2.90
2022-12-29T01:25:03.565Z,3.00
2022-12-29T01:27:30.313Z,3.00
2022-12-29T01:29:57.099Z,3.00
2022-12-29T01:32:24.293Z,3.00
2022-12-29T01:34:51.004Z,3.10
2022-12-29T01:37:17.764Z,3.00
2022-12-29T01:39:44.772Z,3.00
2022-12-29T01:42:19.494Z,2.90
2022-12-29T01:44:56.593Z,2.90
2022-12-29T01:47:40.326Z,2.90
2022-12-29T01:50:19.000Z,2.80
2022-12-29T01:52:53.589Z,2.70
2022-12-29T01:55:20.694Z,2.70
2022-12-29T01:57:50.350Z,2.60
2022-12-29T02:00:17.932Z,2.60
2022-12-29T02:02:51.914Z,2.60
2022-12-29T02:05:43.331Z,2.50
2022-12-29T02:08:14.143Z,2.50
2022-12-29T02:10:42.691Z,2.50
2022-12-29T02:13:09.444Z,2.50
2022-12-29T02:16:13.008Z,2.50
2022-12-29T02:19:07.642Z,2.50
2022-12-29T02:21:49.016Z,2.50
2022-12-29T02:24:35.640Z,2.40
2022-12-29T02:27:12.113Z,2.40
2022-12-29T02:30:08.063Z,2.50
2022-12-29T02:32:59.474Z,2.50
2022-12-29T02:35:35.950Z,2.50
2022-12-29T02:38:20.634Z,2.50
2022-12-29T02:40:59.052Z,2.60
2022-12-29T02:43:48.772Z,2.60
2022-12-29T02:46:28.986Z,2.40
2022-12-29T02:49:07.057Z,2.30
2022-12-29T02:51:43.681Z,2.30
2022-12-29T02:54:29.499Z,2.20
2022-12-29T02:56:56.249Z,2.20
2022-12-29T02:59:24.360Z,2.30
2022-12-29T03:02:15.906Z,2.40
2022-12-29T03:05:06.930Z,2.50
2022-12-29T03:08:06.222Z,2.60
2022-12-29T03:11:27.621Z,2.70
2022-12-29T03:14:21.550Z,2.80
2022-12-29T03:16:58.329Z,3.00
2022-12-29T03:19:31.403Z,3.00
2022-12-29T03:22:31.534Z,3.10
2022-12-29T03:25:24.774Z,3.20
2022-12-29T03:27:59.436Z,3.20
2022-12-29T03:30:30.161Z,3.30
2022-12-29T03:33:04.632Z,3.40
2022-12-29T03:35:37.242Z,3.40
2022-12-29T03:38:17.026Z,3.40
2022-12-29T03:40:50.551Z,3.50
2022-12-29T03:43:18.257Z,3.50
2022-12-29T03:45:46.162Z,3.60
2022-12-29T03:48:12.886Z,3.60
2022-12-29T03:50:41.512Z,3.60
2022-12-29T03:53:08.597Z,3.60
2022-12-29T03:55:35.475Z,3.70
2022-12-29T03:58:02.472Z,3.70
2022-12-29T04:00:47.679Z,3.70
2022-12-29T04:03:14.486Z,3.60
2022-12-29T04:05:41.802Z,3.60
2022-12-29T04:08:08.447Z,3.50
2022-12-29T04:10:35.586Z,3.50
2022-12-29T04:13:05.193Z,3.50
2022-12-29T04:15:32.010Z,3.50
2022-12-29T04:17:59.688Z,3.70
2022-12-29T04:20:45.463Z,3.70
2022-12-29T04:23:12.738Z,3.80
2022-12-29T04:25:39.405Z,3.80
2022-12-29T04:28:08.987Z,3.80
2022-12-29T04:30:48.032Z,3.80
2022-12-29T04:33:24.066Z,3.80
2022-12-29T04:35:51.501Z,3.90
2022-12-29T04:38:18.488Z,3.80
2022-12-29T04:40:45.901Z,3.80
2022-12-29T04:43:13.635Z,3.70
2022-12-29T04:45:58.816Z,3.70
2022-12-29T04:48:29.919Z,3.70
2022-12-29T04:51:19.403Z,3.70
2022-12-29T04:53:46.105Z,3.70
2022-12-29T04:56:12.846Z,3.70
2022-12-29T04:58:39.557Z,3.70
2022-12-29T05:01:06.328Z,4.10
2022-12-29T05:03:33.091Z,5.30
2022-12-29T05:05:59.838Z,5.80
2022-12-29T05:08:28.496Z,6.00
2022-12-29T05:10:57.576Z,6.20
2022-12-29T05:13:24.309Z,6.40
2022-12-29T05:15:54.869Z,6.40
2022-12-29T05:18:23.620Z,6.30
2022-12-29T05:20:50.649Z,6.20
2022-12-29T05:23:19.162Z,5.90
2022-12-29T05:25:50.919Z,5.80
2022-12-29T05:28:20.610Z,5.70
2022-12-29T05:30:56.467Z,5.60
2022-12-29T05:33:23.202Z,5.60
2022-12-29T05:35:51.303Z,5.60
2022-12-29T05:38:19.128Z,5.60
2022-12-29T05:40:46.080Z,5.60
2022-12-29T05:43:24.329Z,5.60
2022-12-29T05:46:14.185Z,5.60
2022-12-29T05:48:57.958Z,5.70
2022-12-29T05:51:45.025Z,5.60
2022-12-29T05:54:13.437Z,5.60
2022-12-29T05:56:41.065Z,5.70
2022-12-29T05:59:09.091Z,5.70
2022-12-29T06:01:36.711Z,5.70
2022-12-29T06:04:03.736Z,5.70
2022-12-29T06:06:31.839Z,5.60
2022-12-29T06:08:58.685Z,5.60
2022-12-29T06:11:25.407Z,5.50
2022-12-29T06:13:55.832Z,5.50
2022-12-29T06:16:23.768Z,5.50
2022-12-29T06:18:54.505Z,5.50
2022-12-29T06:21:22.208Z,5.50
2022-12-29T06:23:49.692Z,5.50
2022-12-29T06:26:16.420Z,5.50
2022-12-29T06:28:43.769Z,5.50
2022-12-29T06:31:11.833Z,5.40
2022-12-29T06:33:39.108Z,5.40
2022-12-29T06:36:06.238Z,5.50
2022-12-29T06:38:32.939Z,5.60
2022-12-29T06:41:00.030Z,5.60
2022-12-29T06:43:38.918Z,5.60
2022-12-29T06:46:14.964Z,5.60
2022-12-29T06:48:43.178Z,5.70
2022-12-29T06:51:09.920Z,5.60
2022-12-29T06:53:36.612Z,5.70
2022-12-29T06:56:03.378Z,5.70
2022-12-29T06:58:30.073Z,5.80
2022-12-29T07:00:56.757Z,5.70
2022-12-29T07:03:23.505Z,5.70
2022-12-29T07:05:50.442Z,5.60
2022-12-29T07:08:17.087Z,5.60
2022-12-29T07:10:44.041Z,5.40
2022-12-29T07:13:10.684Z,5.30
2022-12-29T07:15:38.085Z,5.30
2022-12-29T07:18:05.180Z,5.30
2022-12-29T07:20:32.677Z,5.20
2022-12-29T07:22:59.520Z,5.20
2022-12-29T07:25:26.210Z,5.30
2022-12-29T07:27:53.016Z,5.40
2022-12-29T07:30:19.955Z,5.50
2022-12-29T07:32:46.608Z,5.50
2022-12-29T07:35:13.268Z,5.40
2022-12-29T07:37:39.952Z,5.40
2022-12-29T07:40:07.321Z,5.30
2022-12-29T07:42:33.984Z,5.30
2022-12-29T07:45:00.877Z,5.40
2022-12-29T07:47:50.209Z,5.40
2022-12-29T07:50:17.284Z,5.40
2022-12-29T07:52:44.018Z,5.40
2022-12-29T07:55:10.702Z,5.60
2022-12-29T07:57:37.391Z,5.70
2022-12-29T08:00:04.789Z,5.90
2022-12-29T08:02:39.007Z,6.10
2022-12-29T08:05:06.348Z,6.30
2022-12-29T08:07:33.006Z,6.40
2022-12-29T08:09:59.817Z,6.40
2022-12-29T08:12:26.463Z,6.40
2022-12-29T08:14:53.308Z,6.50
2022-12-29T08:17:20.038Z,6.60
2022-12-29T08:19:46.708Z,6.70
2022-12-29T08:22:15.393Z,6.70
2022-12-29T08:24:42.068Z,6.70
2022-12-29T08:27:17.790Z,6.70
2022-12-29T08:29:47.019Z,6.80
2022-12-29T08:32:13.762Z,7.00
2022-12-29T08:34:40.446Z,7.10
2022-12-29T08:37:07.176Z,7.20
2022-12-29T08:39:33.859Z,7.30
2022-12-29T08:42:00.605Z,7.30
2022-12-29T08:44:27.466Z,7.20
2022-12-29T08:46:54.143Z,7.20
2022-12-29T08:49:20.903Z,7.30
2022-12-29T08:51:47.591Z,7.30
2022-12-29T08:54:14.283Z,7.30
2022-12-29T08:56:41.064Z,7.30
2022-12-29T08:59:08.195Z,7.30
2022-12-29T09:01:37.353Z,7.30
2022-12-29T09:04:15.015Z,7.30
2022-12-29T09:06:42.624Z,7.30
2022-12-29T09:09:09.521Z,7.30
2022-12-29T09:11:36.391Z,7.30
2022-12-29T09:14:03.262Z,7.30
2022-12-29T09:16:30.122Z,7.30
2022-12-29T09:18:56.834Z,7.30
2022-12-29T09:21:23.586Z,7.30
2022-12-29T09:23:50.245Z,7.30
2022-12-29T09:26:16.938Z,7.40
2022-12-29T09:28:45.269Z,7.40
2022-12-29T09:31:12.124Z,7.40
2022-12-29T09:33:38.969Z,7.40
2022-12-29T09:36:06.075Z,7.40
2022-12-29T09:38:32.787Z,7.30
2022-12-29T09:41:27.397Z,7.30
2022-12-29T09:44:19.959Z,7.30
2022-12-29T09:46:51.304Z,7.40
2022-12-29T09:49:43.393Z,7.40
2022-12-29T09:52:16.408Z,7.50
2022-12-29T09:55:13.864Z,7.50
2022-12-29T09:57:57.338Z,7.50
2022-12-29T10:00:38.627Z,7.60
2022-12-29T10:03:18.550Z,7.70
2022-12-29T10:05:54.329Z,7.70
2022-12-29T10:08:39.828Z,7.80
2022-12-29T10:11:57.352Z,8.00
2022-12-29T10:14:59.155Z,8.00
2022-12-29T10:17:47.915Z,8.10
2022-12-29T10:20:49.272Z,8.20
2022-12-29T10:23:41.144Z,8.30
2022-12-29T10:26:24.641Z,8.40
2022-12-29T10:29:05.533Z,8.40
2022-12-29T10:31:43.880Z,8.50
2022-12-29T10:34:26.307Z,8.50
2022-12-29T10:37:01.127Z,8.60
2022-12-29T10:39:37.785Z,8.60
2022-12-29T10:42:27.094Z,8.70
2022-12-29T10:44:56.081Z,8.70
2022-12-29T10:47:30.723Z,8.80
2022-12-29T10:49:59.325Z,8.80
2022-12-29T10:52:28.719Z,8.80
2022-12-29T10:55:03.005Z,8.80
2022-12-29T10:57:45.143Z,8.90
2022-12-29T11:00:18.423Z,8.90
2022-12-29T11:03:00.182Z,8.90
2022-12-29T11:05:51.335Z,9.00
2022-12-29T11:08:22.749Z,9.20
2022-12-29T11:11:03.004Z,9.30
2022-12-29T11:13:39.114Z,9.40
2022-12-29T11:16:06.294Z,9.60
2022-12-29T11:18:38.070Z,9.70
2022-12-29T11:21:42.896Z,9.90
2022-12-29T11:24:30.191Z,10.10
2022-12-29T11:27:15.525Z,10.20
2022-12-29T11:29:43.372Z,10.40
2022-12-29T11:32:22.697Z,10.60
2022-12-29T11:34:53.045Z,10.80
2022-12-29T11:37:40.118Z,11.00
2022-12-29T11:40:11.432Z,11.10
2022-12-29T11:42:42.159Z,11.30
2022-12-29T11:45:22.863Z,11.30
2022-12-29T11:47:53.999Z,11.50
2022-12-29T11:50:24.709Z,11.50
2022-12-29T11:52:58.990Z,11.50
2022-12-29T11:55:27.704Z,11.40
2022-12-29T11:57:58.082Z,11.40
2022-12-29T12:00:28.161Z,11.40
2022-12-29T12:03:02.788Z,11.40
2022-12-29T12:05:58.676Z,11.30
2022-12-29T12:08:49.762Z,11.30
2022-12-29T12:11:25.167Z,11.30
2022-12-29T12:14:22.837Z,11.30
2022-12-29T12:17:38.289Z,11.30
2022-12-29T12:20:23.716Z,11.30
2022-12-29T12:23:14.133Z,11.50
2022-12-29T12:25:48.674Z,11.70
2022-12-29T12:28:36.765Z,11.80
2022-12-29T12:31:07.503Z,11.80
2022-12-29T12:33:42.627Z,11.70
2022-12-29T12:36:22.951Z,11.70
2022-12-29T12:39:13.036Z,11.70
2022-12-29T12:41:48.098Z,11.90
2022-12-29T12:44:39.840Z,12.00
2022-12-29T12:47:15.733Z,12.00
2022-12-29T12:49:58.902Z,11.90
2022-12-29T12:52:39.082Z,12.00
2022-12-29T12:55:39.591Z,12.00
2022-12-29T12:58:26.992Z,12.10
2022-12-29T13:01:14.904Z,12.40
2022-12-29T13:03:44.705Z,12.70
2022-12-29T13:06:41.181Z,12.60
2022-12-29T13:09:13.774Z,12.60
2022-12-29T13:11:59.176Z,12.70
2022-12-29T13:14:34.614Z,13.00
2022-12-29T13:17:16.531Z,13.60
2022-12-29T13:19:57.978Z,13.80
2022-12-29T13:22:28.615Z,13.60
2022-12-29T13:25:28.378Z,13.60
2022-12-29T13:28:19.117Z,13.00
2022-12-29T13:30:58.939Z,12.50
2022-12-29T13:33:37.701Z,11.90
2022-12-29T13:36:25.040Z,11.50
2022-12-29T13:39:04.977Z,11.30
2022-12-29T13:42:06.343Z,11.20
2022-12-29T13:44:43.901Z,11.10
2022-12-29T13:47:22.832Z,10.90
2022-12-29T13:49:50.934Z,10.90
2022-12-29T13:52:29.795Z,10.80
2022-12-29T13:55:20.709Z,10.60
2022-12-29T13:57:55.159Z,10.60
2022-12-29T14:00:24.728Z,10.40
2022-12-29T14:03:30.839Z,10.30
2022-12-29T14:06:24.243Z,10.20
2022-12-29T14:09:02.724Z,10.30
2022-12-29T14:11:36.156Z,10.30
2022-12-29T14:14:21.127Z,10.30
2022-12-29T14:16:48.559Z,10.20
2022-12-29T14:19:24.659Z,10.20
2022-12-29T14:21:58.885Z,10.10
2022-12-29T14:24:37.272Z,10.10
2022-12-29T14:27:15.794Z,10.00
2022-12-29T14:29:44.415Z,9.90
2022-12-29T14:32:26.447Z,9.90
2022-12-29T14:35:00.997Z,9.90
2022-12-29T14:37:36.172Z,9.90
2022-12-29T14:40:15.137Z,9.80
2022-12-29T14:42:43.179Z,9.80
2022-12-29T14:45:29.621Z,9.80
2022-12-29T14:47:56.972Z,9.80
2022-12-29T14:50:41.563Z,9.80
2022-12-29T14:53:44.592Z,9.60
2022-12-29T14:56:13.015Z,9.60
2022-12-29T14:58:48.330Z,9.50
2022-12-29T15:01:44.135Z,9.50
2022-12-29T15:04:33.485Z,9.40
2022-12-29T15:07:04.285Z,9.50
2022-12-29T15:09:43.706Z,9.40
2022-12-29T15:12:39.450Z,9.40
2022-12-29T15:15:18.794Z,9.30
2022-12-29T15:17:45.482Z,9.20
2022-12-29T15:20:21.352Z,9.20
2022-12-29T15:23:01.466Z,9.20
2022-12-29T15:25:28.352Z,9.10
2022-12-29T15:28:05.246Z,9.10
2022-12-29T15:30:33.631Z,9.10
2022-12-29T15:33:00.403Z,9.10
2022-12-29T15:35:37.732Z,9.10
2022-12-29T15:38:30.371Z,9.00
2022-12-29T15:41:04.761Z,9.00
2022-12-29T15:43:47.377Z,9.00
2022-12-29T15:46:15.139Z,9.00
2022-12-29T15:48:42.082Z,8.90
2022-12-29T15:51:23.516Z,8.90
2022-12-29T15:53:51.817Z,8.90
2022-12-29T15:56:19.198Z,8.80
2022-12-29T15:58:51.744Z,8.80
2022-12-29T16:01:19.644Z,8.80
2022-12-29T16:03:47.280Z,8.80
2022-12-29T16:06:27.962Z,8.80
2022-12-29T16:09:04.503Z,8.70
2022-12-29T16:11:37.963Z,8.70
2022-12-29T16:14:11.428Z,8.60
2022-12-29T16:16:40.973Z,8.60
2022-12-29T16:19:44.583Z,8.60
2022-12-29T16:22:16.896Z,8.50
2022-12-29T16:24:43.608Z,8.40
2022-12-29T16:27:32.675Z,8.40
2022-12-29T16:30:04.077Z,8.30
2022-12-29T16:32:32.414Z,8.30
2022-12-29T16:35:20.931Z,8.20
2022-12-29T16:37:48.400Z,8.20
2022-12-29T16:40:27.101Z,8.10
2022-12-29T16:42:59.342Z,8.10
2022-12-29T16:46:04.874Z,8.00
2022-12-29T16:48:48.614Z,7.90
2022-12-29T16:51:24.040Z,7.70
2022-12-29T16:53:54.369Z,7.60
2022-12-29T16:56:28.020Z,7.40
2022-12-29T16:59:09.437Z,7.40
2022-12-29T17:01:40.411Z,7.30
2022-12-29T17:04:11.231Z,7.20
2022-12-29T17:06:38.454Z,7.10
2022-12-29T17:09:19.328Z,7.10
2022-12-29T17:12:05.427Z,7.10
2022-12-29T17:14:43.462Z,7.00
2022-12-29T17:17:18.495Z,7.00
2022-12-29T17:19:55.280Z,7.00
2022-12-29T17:22:25.795Z,7.00
2022-12-29T17:24:57.799Z,6.90
2022-12-29T17:27:29.853Z,6.90
2022-12-29T17:30:00.752Z,6.80
2022-12-29T17:32:27.538Z,6.80
2022-12-29T17:34:54.223Z,6.70
2022-12-29T17:37:39.109Z,6.60
2022-12-29T17:40:08.696Z,6.30
2022-12-29T17:42:40.499Z,6.30
2022-12-29T17:45:12.905Z,6.30
2022-12-29T17:47:39.563Z,6.40
2022-12-29T17:50:06.816Z,6.50
2022-12-29T17:52:33.577Z,6.50
2022-12-29T17:55:01.030Z,6.70
2022-12-29T17:57:27.762Z,6.90
2022-12-29T17:59:54.421Z,6.90
2022-12-29T18:02:31.518Z,7.10
2022-12-29T18:04:59.233Z,7.30
2022-12-29T18:07:35.398Z,7.50
2022-12-29T18:10:03.631Z,7.70
2022-12-29T18:12:39.701Z,7.80
2022-12-29T18:15:16.269Z,7.80
2022-12-29T18:17:42.943Z,7.90
2022-12-29T18:20:09.745Z,8.00
2022-12-29T18:22:36.428Z,8.00
2022-12-29T18:25:03.591Z,8.00
2022-12-29T18:27:30.321Z,8.00
2022-12-29T18:29:57.001Z,8.10
2022-12-29T18:32:23.683Z,8.00
2022-12-29T18:34:50.415Z,8.10
2022-12-29T18:37:17.119Z,8.10
2022-12-29T18:39:43.763Z,8.00
2022-12-29T18:42:15.712Z,8.00
2022-12-29T18:44:42.394Z,8.00
2022-12-29T18:47:09.049Z,8.00
2022-12-29T18:49:35.731Z,7.90
2022-12-29T18:52:02.517Z,7.90
2022-12-29T18:54:31.643Z,7.90
2022-12-29T18:56:58.741Z,7.90
2022-12-29T18:59:25.658Z,7.80
2022-12-29T19:01:52.780Z,7.80
2022-12-29T19:04:19.527Z,8.00
2022-12-29T19:06:46.235Z,7.90
2022-12-29T19:09:13.689Z,7.80
2022-12-29T19:11:40.665Z,7.80
2022-12-29T19:14:15.544Z,7.80
2022-12-29T19:16:42.340Z,7.70
2022-12-29T19:19:15.293Z,7.70
2022-12-29T19:21:42.075Z,7.60
2022-12-29T19:24:08.809Z,7.60
2022-12-29T19:26:40.326Z,7.50
2022-12-29T19:29:13.569Z,7.50
2022-12-29T19:31:40.326Z,7.50
2022-12-29T19:34:07.174Z,7.50
2022-12-29T19:36:33.902Z,7.40
2022-12-29T19:39:00.658Z,7.40
2022-12-29T19:41:27.544Z,7.30
2022-12-29T19:43:54.274Z,7.30
2022-12-29T19:46:21.168Z,7.30
2022-12-29T19:48:47.909Z,7.30
2022-12-29T19:51:17.068Z,7.20
2022-12-29T19:53:44.873Z,7.30
2022-12-29T19:56:12.223Z,7.20
2022-12-29T19:58:43.854Z,7.20
2022-12-29T20:01:20.565Z,7.20
2022-12-29T20:03:48.371Z,7.20
2022-12-29T20:06:17.708Z,7.20
2022-12-29T20:08:44.723Z,7.20
2022-12-29T20:11:14.384Z,7.20
2022-12-29T20:13:42.345Z,7.20
2022-12-29T20:16:13.211Z,7.20
2022-12-29T20:18:40.220Z,7.30
2022-12-29T20:21:16.910Z,7.20
2022-12-29T20:23:44.945Z,7.20
2022-12-29T20:26:24.772Z,7.20
2022-12-29T20:28:52.301Z,7.20
2022-12-29T20:31:29.170Z,7.20
2022-12-29T20:33:56.333Z,7.20
2022-12-29T20:36:27.042Z,7.10
2022-12-29T20:38:55.634Z,7.10
2022-12-29T20:41:22.900Z,7.10
2022-12-29T20:43:50.537Z,7.10
2022-12-29T20:46:21.291Z,7.10
2022-12-29T20:48:50.123Z,7.10
2022-12-29T20:51:17.246Z,7.00
2022-12-29T20:53:44.193Z,7.00
2022-12-29T20:56:14.922Z,7.00
2022-12-29T20:59:17.136Z,7.00
2022-12-29T21:01:28.859Z,7.00
2022-12-29T21:03:55.644Z,7.00
2022-12-29T21:06:22.399Z,7.00
2022-12-29T21:08:50.954Z,7.00
2022-12-29T21:11:18.420Z,6.90
2022-12-29T21:13:45.247Z,6.90
2022-12-29T21:16:13.583Z,6.90
2022-12-29T21:18:40.474Z,6.80
2022-12-29T21:21:10.563Z,6.90
2022-12-29T21:23:40.802Z,6.90
2022-12-29T21:26:13.208Z,6.90
2022-12-29T21:28:41.435Z,6.90
2022-12-29T21:31:17.224Z,6.90
2022-12-29T21:33:44.041Z,6.90
2022-12-29T21:36:10.735Z,6.90
2022-12-29T21:38:37.441Z,6.90
2022-12-29T21:41:08.579Z,6.90
2022-12-29T21:43:35.936Z,6.90
2022-12-29T21:46:03.368Z,6.90
2022-12-29T21:48:30.220Z,6.90
2022-12-29T21:51:30.613Z,6.80
2022-12-29T21:54:20.803Z,6.90
2022-12-29T21:56:48.742Z,6.90
2022-12-29T21:59:35.317Z,6.90
2022-12-29T22:02:22.948Z,6.90
2022-12-29T22:05:08.505Z,6.90
2022-12-29T22:07:55.073Z,6.90
2022-12-29T22:10:40.537Z,6.90
2022-12-29T22:13:07.223Z,6.90
2022-12-29T22:15:36.290Z,6.90
2022-12-29T22:18:04.769Z,6.90
2022-12-29T22:20:34.812Z,6.90
2022-12-29T22:23:02.139Z,6.90
2022-12-29T22:25:29.084Z,6.90
2022-12-29T22:27:59.474Z,6.90
2022-12-29T22:30:29.898Z,6.90
2022-12-29T22:32:57.884Z,6.90
2022-12-29T22:35:25.046Z,6.80
2022-12-29T22:37:51.748Z,6.80
2022-12-29T22:40:18.701Z,6.80
2022-12-29T22:42:45.555Z,6.80
2022-12-29T22:45:12.384Z,6.90
2022-12-29T22:47:39.639Z,6.90
2022-12-29T22:50:06.927Z,6.90
2022-12-29T22:52:33.616Z,6.90
2022-12-29T22:55:06.061Z,6.90
2022-12-29T22:57:33.877Z,6.90
2022-12-29T23:00:00.524Z,6.90
2022-12-29T23:02:27.623Z,6.90
2022-12-29T23:05:04.169Z,6.90
2022-12-29T23:07:32.687Z,6.90
2022-12-29T23:09:59.548Z,6.90
2022-12-29T23:12:29.449Z,6.80
2022-12-29T23:14:56.144Z,6.80
2022-12-29T23:17:23.069Z,6.80
2022-12-29T23:19:49.714Z,6.80
2022-12-29T23:22:16.853Z,6.80
2022-12-29T23:24:43.526Z,6.80
2022-12-29T23:27:10.194Z,6.80
2022-12-29T23:29:36.853Z,6.80
2022-12-29T23:32:03.731Z,6.80
2022-12-29T23:34:30.425Z,6.70
2022-12-29T23:36:57.082Z,6.70
2022-12-29T23:39:24.716Z,6.70
2022-12-29T23:41:52.145Z,6.70
2022-12-29T23:44:18.832Z,6.70
2022-12-29T23:46:45.542Z,6.70
2022-12-29T23:49:12.357Z,6.60
2022-12-29T23:51:39.053Z,6.60
2022-12-29T23:54:05.883Z,6.60
2022-12-29T23:56:32.869Z,6.60
2022-12-29T23:58:59.566Z,6.60
